createdAt,value
2018-01-25T00:02:20.625Z,3.47
2018-01-25T00:04:48.251Z,3.80
2018-01-25T00:07:16.569Z,4.70
2018-01-25T00:09:44.143Z,4.50
2018-01-25T00:12:11.675Z,5.30
2018-01-25T00:14:39.250Z,3.30
2018-01-25T00:17:06.775Z,3.63
2018-01-25T00:19:35.108Z,4.03
2018-01-25T00:22:02.648Z,3.87
2018-01-25T00:24:30.222Z,3.70
2018-01-25T00:26:57.751Z,3.80
2018-01-25T00:29:25.328Z,4.07
2018-01-25T00:31:52.856Z,3.70
2018-01-25T00:34:21.196Z,4.13
2018-01-25T00:36:48.728Z,5.80
2018-01-25T00:39:16.299Z,3.30
2018-01-25T00:41:43.826Z,3.53
2018-01-25T00:44:11.400Z,4.00
2018-01-25T00:46:38.937Z,3.60
2018-01-25T00:49:06.509Z,3.40
2018-01-25T00:51:34.031Z,4.10
2018-01-25T00:54:02.383Z,3.50
2018-01-25T00:56:29.933Z,3.50
2018-01-25T00:58:57.504Z,3.90
2018-01-25T01:01:25.036Z,3.33
2018-01-25T01:03:52.615Z,3.30
2018-01-25T01:06:20.153Z,3.20
2018-01-25T01:08:47.727Z,3.27
2018-01-25T01:11:15.264Z,3.30
2018-01-25T01:13:42.937Z,3.20
2018-01-25T01:16:10.471Z,3.03
2018-01-25T01:18:38.041Z,3.00
2018-01-25T01:21:05.586Z,3.67
2018-01-25T01:23:33.929Z,3.27
2018-01-25T01:26:01.467Z,3.00
2018-01-25T01:28:29.031Z,3.33
2018-01-25T01:30:56.560Z,4.27
2018-01-25T01:33:24.247Z,4.47
2018-01-25T01:35:51.779Z,4.27
2018-01-25T01:38:19.426Z,3.97
2018-01-25T01:40:46.970Z,3.75
2018-01-25T01:43:15.308Z,4.60
2018-01-25T01:45:42.826Z,4.13
2018-01-25T01:48:10.412Z,4.50
2018-01-25T01:50:37.956Z,4.35
2018-01-25T01:53:05.530Z,3.20
2018-01-25T01:55:33.074Z,3.60
2018-01-25T01:58:00.645Z,3.20
2018-01-25T02:00:28.165Z,3.22
2018-01-25T02:02:56.500Z,3.50
2018-01-25T02:05:24.034Z,3.03
2018-01-25T02:07:51.583Z,3.20
2018-01-25T02:10:19.124Z,2.73
2018-01-25T02:12:47.545Z,3.30
2018-01-25T02:15:15.078Z,2.97
2018-01-25T02:17:42.621Z,2.95
2018-01-25T02:20:10.955Z,3.30
2018-01-25T02:22:38.488Z,3.07
2018-01-25T02:25:06.060Z,3.53
2018-01-25T02:27:33.590Z,5.50
2018-01-25T02:30:01.168Z,5.60
2018-01-25T02:32:28.715Z,5.30
2018-01-25T02:34:56.266Z,5.10
2018-01-25T02:37:23.851Z,3.78
2018-01-25T02:39:51.382Z,4.50
2018-01-25T02:42:19.689Z,4.62
2018-01-25T02:44:47.239Z,3.37
2018-01-25T02:47:14.821Z,3.00
2018-01-25T02:49:42.359Z,2.40
2018-01-25T02:52:09.939Z,3.13
2018-01-25T02:54:37.523Z,2.95
2018-01-25T02:57:05.056Z,2.87
2018-01-25T02:59:32.616Z,2.03
2018-01-25T03:02:00.192Z,3.58
2018-01-25T03:04:27.729Z,3.25
2018-01-25T03:06:55.307Z,7.78
2018-01-25T03:09:22.843Z,2.90
2018-01-25T03:11:50.412Z,3.80
2018-01-25T03:14:17.968Z,5.85
2018-01-25T03:16:45.541Z,4.50
2018-01-25T03:19:13.111Z,3.00
2018-01-25T03:21:40.652Z,2.97
2018-01-25T03:24:08.226Z,2.60
2018-01-25T03:26:35.762Z,3.92
2018-01-25T03:29:03.331Z,3.17
2018-01-25T03:31:30.914Z,2.45
2018-01-25T03:33:58.451Z,1.90
2018-01-25T03:36:25.989Z,2.15
2018-01-25T03:38:53.746Z,1.87
2018-01-25T03:41:21.282Z,1.73
2018-01-25T03:43:48.827Z,1.92
2018-01-25T03:46:16.404Z,2.08
2018-01-25T03:48:44.699Z,2.00
2018-01-25T03:51:13.036Z,2.35
2018-01-25T03:53:40.617Z,1.90
2018-01-25T03:56:08.916Z,1.62
2018-01-25T03:58:37.217Z,2.20
2018-01-25T04:01:04.795Z,3.20
2018-01-25T04:03:32.336Z,2.45
2018-01-25T04:05:59.868Z,1.70
2018-01-25T04:08:28.192Z,3.20
2018-01-25T04:10:55.732Z,2.75
2018-01-25T04:13:23.311Z,10.73
2018-01-25T04:15:50.907Z,3.80
2018-01-25T04:18:18.434Z,3.30
2018-01-25T04:20:46.004Z,3.37
2018-01-25T04:23:13.540Z,10.35
2018-01-25T04:25:41.112Z,7.75
2018-01-25T04:28:08.655Z,5.40
2018-01-25T04:30:36.220Z,4.55
2018-01-25T04:33:03.783Z,8.77
2018-01-25T04:35:31.330Z,7.32
2018-01-25T04:37:58.904Z,4.70
2018-01-25T04:40:26.444Z,2.30
2018-01-25T04:42:54.064Z,2.25
2018-01-25T04:45:21.595Z,1.60
2018-01-25T04:47:49.176Z,1.20
2018-01-25T04:50:16.797Z,1.48
2018-01-25T04:52:44.335Z,1.40
2018-01-25T04:55:11.914Z,1.40
2018-01-25T04:57:39.444Z,1.55
2018-01-25T05:00:06.975Z,1.45
2018-01-25T05:02:34.556Z,1.15
2018-01-25T05:05:02.855Z,1.10
2018-01-25T05:07:30.415Z,1.65
2018-01-25T05:09:57.979Z,1.12
2018-01-25T05:12:25.512Z,1.10
2018-01-25T05:14:53.831Z,1.25
2018-01-25T05:17:28.211Z,1.27
2018-01-25T05:19:56.528Z,1.40
2018-01-25T05:22:24.086Z,1.40
2018-01-25T05:24:51.657Z,1.45
2018-01-25T05:27:19.248Z,1.25
2018-01-25T05:29:46.791Z,1.73
2018-01-25T05:32:14.328Z,1.12
2018-01-25T05:34:41.924Z,1.10
2018-01-25T05:37:09.467Z,1.10
2018-01-25T05:39:37.040Z,1.30
2018-01-25T05:42:04.589Z,1.20
2018-01-25T05:44:32.169Z,1.30
2018-01-25T05:46:59.903Z,1.00
2018-01-25T05:49:27.441Z,0.90
2018-01-25T05:51:54.978Z,1.10
2018-01-25T05:54:22.557Z,1.30
2018-01-25T05:56:50.091Z,1.08
2018-01-25T05:59:18.392Z,1.23
2018-01-25T06:01:45.963Z,1.10
2018-01-25T06:04:13.535Z,1.25
2018-01-25T06:06:41.067Z,1.50
2018-01-25T06:09:08.594Z,1.33
2018-01-25T06:11:36.931Z,1.20
2018-01-25T06:14:04.464Z,1.60
2018-01-25T06:16:32.034Z,1.30
2018-01-25T06:18:59.604Z,1.60
2018-01-25T06:21:27.176Z,1.50
2018-01-25T06:23:54.703Z,1.40
2018-01-25T06:26:22.268Z,1.50
2018-01-25T06:28:49.835Z,1.55
2018-01-25T06:31:17.406Z,1.65
2018-01-25T06:33:44.943Z,1.45
2018-01-25T06:36:12.551Z,1.50
2018-01-25T06:38:40.119Z,1.30
2018-01-25T06:41:07.686Z,1.80
2018-01-25T06:43:35.254Z,1.80
2018-01-25T06:46:03.643Z,1.60
2018-01-25T06:48:31.348Z,1.85
2018-01-25T06:50:58.894Z,1.50
2018-01-25T06:53:26.456Z,1.55
2018-01-25T06:55:53.996Z,2.58
2018-01-25T06:58:21.565Z,2.28
2018-01-25T07:00:49.100Z,1.83
2018-01-25T07:03:17.439Z,2.03
2018-01-25T07:05:44.980Z,1.70
2018-01-25T07:08:12.517Z,1.70
2018-01-25T07:10:40.099Z,1.62
2018-01-25T07:13:07.759Z,1.83
2018-01-25T07:15:35.313Z,1.40
2018-01-25T07:18:02.895Z,1.80
2018-01-25T07:20:30.465Z,1.48
2018-01-25T07:22:58.019Z,1.30
2018-01-25T07:25:25.591Z,1.20
2018-01-25T07:27:53.125Z,2.00
2018-01-25T07:30:20.686Z,1.80
2018-01-25T07:32:48.336Z,1.60
2018-01-25T07:35:15.931Z,1.40
2018-01-25T07:37:44.565Z,1.62
2018-01-25T07:40:12.137Z,1.80
2018-01-25T07:42:39.672Z,1.52
2018-01-25T07:45:07.246Z,2.03
2018-01-25T07:47:34.778Z,1.90
2018-01-25T07:50:03.115Z,1.83
2018-01-25T07:52:30.695Z,1.80
2018-01-25T07:54:58.264Z,1.50
2018-01-25T07:57:31.638Z,1.85
2018-01-25T07:59:59.173Z,1.90
2018-01-25T08:02:32.599Z,1.77
2018-01-25T08:05:00.157Z,1.70
2018-01-25T08:07:27.697Z,2.03
2018-01-25T08:09:55.262Z,2.25
2018-01-25T08:12:22.848Z,2.08
2018-01-25T08:14:50.391Z,2.00
2018-01-25T08:17:17.926Z,2.10
2018-01-25T08:19:45.511Z,1.58
2018-01-25T08:22:13.045Z,1.83
2018-01-25T08:24:40.624Z,2.30
2018-01-25T08:27:08.164Z,2.17
2018-01-25T08:29:35.743Z,2.62
2018-01-25T08:32:03.319Z,2.12
2018-01-25T08:34:30.855Z,1.80
2018-01-25T08:36:58.436Z,3.10
2018-01-25T08:39:25.960Z,2.25
2018-01-25T08:41:53.538Z,2.08
2018-01-25T08:44:21.117Z,1.73
2018-01-25T08:46:48.656Z,1.90
2018-01-25T08:49:16.249Z,2.42
2018-01-25T08:51:44.561Z,1.95
2018-01-25T08:54:12.342Z,2.20
2018-01-25T08:56:39.904Z,1.80
2018-01-25T08:59:07.520Z,1.65
2018-01-25T09:01:35.068Z,1.77
2018-01-25T09:04:02.643Z,1.50
2018-01-25T09:06:30.952Z,1.80
2018-01-25T09:08:58.528Z,1.67
2018-01-25T09:11:26.064Z,1.73
2018-01-25T09:13:53.640Z,2.20
2018-01-25T09:16:21.175Z,2.28
2018-01-25T09:18:48.736Z,2.00
2018-01-25T09:21:16.274Z,1.50
2018-01-25T09:23:44.615Z,1.70
2018-01-25T09:26:12.184Z,1.60
2018-01-25T09:28:39.781Z,1.50
2018-01-25T09:31:08.089Z,1.98
2018-01-25T09:33:35.619Z,1.33
2018-01-25T09:36:03.954Z,1.73
2018-01-25T09:38:31.490Z,1.37
2018-01-25T09:40:59.067Z,1.65
2018-01-25T09:43:26.651Z,1.90
2018-01-25T09:45:54.199Z,1.53
2018-01-25T09:48:21.768Z,1.73
2018-01-25T09:50:49.345Z,1.90
2018-01-25T09:53:17.697Z,1.87
2018-01-25T09:55:45.238Z,2.40
2018-01-25T09:58:12.772Z,2.13
2018-01-25T10:00:40.324Z,1.73
2018-01-25T10:03:07.892Z,2.00
2018-01-25T10:05:35.432Z,1.80
2018-01-25T10:08:03.774Z,1.63
2018-01-25T10:10:31.317Z,1.60
2018-01-25T10:12:58.914Z,1.37
2018-01-25T10:15:26.489Z,1.90
2018-01-25T10:17:54.812Z,1.80
2018-01-25T10:20:22.383Z,1.50
2018-01-25T10:22:49.919Z,1.27
2018-01-25T10:25:17.467Z,1.40
2018-01-25T10:27:45.036Z,6.80
2018-01-25T10:30:12.599Z,1.80
2018-01-25T10:32:40.141Z,1.33
2018-01-25T10:35:07.781Z,2.30
2018-01-25T10:37:35.280Z,1.27
2018-01-25T10:40:02.810Z,1.27
2018-01-25T10:42:31.165Z,1.80
2018-01-25T10:44:58.704Z,1.20
2018-01-25T10:47:26.239Z,1.13
2018-01-25T10:49:53.898Z,1.00
2018-01-25T10:52:21.456Z,1.13
2018-01-25T10:54:49.032Z,1.10
2018-01-25T10:57:16.612Z,3.17
2018-01-25T10:59:44.151Z,2.30
2018-01-25T11:02:11.725Z,1.50
2018-01-25T11:04:39.291Z,1.50
2018-01-25T11:07:06.892Z,1.50
2018-01-25T11:09:34.433Z,1.10
2018-01-25T11:12:02.741Z,1.53
2018-01-25T11:14:30.314Z,1.00
2018-01-25T11:16:57.855Z,9.27
2018-01-25T11:19:25.430Z,8.83
2018-01-25T11:21:53.026Z,1.80
2018-01-25T11:24:20.561Z,1.80
2018-01-25T11:26:48.096Z,3.80
2018-01-25T11:29:15.669Z,2.50
2018-01-25T11:31:43.205Z,1.30
2018-01-25T11:34:11.544Z,0.80
2018-01-25T11:36:39.110Z,4.50
2018-01-25T11:39:06.649Z,1.37
2018-01-25T11:41:34.203Z,1.47
2018-01-25T11:44:01.734Z,1.37
2018-01-25T11:46:29.295Z,1.40
2018-01-25T11:48:56.867Z,1.20
2018-01-25T11:51:24.412Z,1.40
2018-01-25T11:53:51.982Z,1.13
2018-01-25T11:56:19.551Z,1.13
2018-01-25T11:58:47.084Z,1.50
2018-01-25T12:01:14.665Z,1.17
2018-01-25T12:03:42.199Z,1.07
2018-01-25T12:06:09.736Z,1.30
2018-01-25T12:08:37.326Z,1.30
2018-01-25T12:11:04.875Z,1.20
2018-01-25T12:13:33.178Z,1.20
2018-01-25T12:16:00.759Z,1.10
2018-01-25T12:18:28.301Z,1.33
2018-01-25T12:20:55.867Z,1.33
2018-01-25T12:23:23.402Z,1.20
2018-01-25T12:25:51.204Z,1.93
2018-01-25T12:28:18.787Z,1.20
2018-01-25T12:30:46.347Z,2.40
2018-01-25T12:33:13.893Z,2.00
2018-01-25T12:35:41.459Z,1.23
2018-01-25T12:38:08.988Z,1.80
2018-01-25T12:40:36.561Z,1.40
2018-01-25T12:43:04.089Z,1.33
2018-01-25T12:45:31.673Z,1.50
2018-01-25T12:47:59.215Z,1.07
2018-01-25T12:50:26.748Z,1.30
2018-01-25T12:52:55.081Z,1.63
2018-01-25T12:55:22.611Z,1.60
2018-01-25T12:57:50.187Z,2.07
2018-01-25T13:00:17.731Z,1.10
2018-01-25T13:02:45.304Z,1.20
2018-01-25T13:05:12.835Z,1.10
2018-01-25T13:07:41.136Z,1.00
2018-01-25T13:10:08.711Z,1.13
2018-01-25T13:12:36.244Z,1.13
2018-01-25T13:15:03.781Z,1.20
2018-01-25T13:17:32.111Z,1.13
2018-01-25T13:19:59.647Z,1.17
2018-01-25T13:22:27.278Z,1.00
2018-01-25T13:24:55.682Z,1.20
2018-01-25T13:27:23.956Z,1.00
2018-01-25T13:29:51.493Z,1.30
2018-01-25T13:32:19.861Z,1.20
2018-01-25T13:34:47.424Z,1.00
2018-01-25T13:37:15.785Z,1.57
2018-01-25T13:39:43.324Z,1.20
2018-01-25T13:42:10.888Z,2.10
2018-01-25T13:44:38.421Z,1.13
2018-01-25T13:47:06.015Z,1.17
2018-01-25T13:49:33.544Z,1.27
2018-01-25T13:52:01.070Z,1.27
2018-01-25T13:54:29.427Z,1.10
2018-01-25T13:56:56.956Z,1.40
2018-01-25T13:59:24.488Z,1.70
2018-01-25T14:01:52.060Z,1.80
2018-01-25T14:04:19.586Z,1.40
2018-01-25T14:06:47.936Z,1.43
2018-01-25T14:09:15.476Z,2.40
2018-01-25T14:11:43.041Z,1.20
2018-01-25T14:14:10.610Z,1.47
2018-01-25T14:16:38.177Z,1.70
2018-01-25T14:19:05.747Z,1.30
2018-01-25T14:21:33.279Z,2.00
2018-01-25T14:24:00.844Z,1.27
2018-01-25T14:26:28.373Z,1.63
2018-01-25T14:28:55.946Z,1.40
2018-01-25T14:31:23.479Z,1.50
2018-01-25T14:33:51.107Z,2.10
2018-01-25T14:36:18.704Z,2.70
2018-01-25T14:38:46.283Z,2.50
2018-01-25T14:41:13.816Z,2.00
2018-01-25T14:43:41.352Z,1.83
2018-01-25T14:46:09.688Z,2.20
2018-01-25T14:48:37.250Z,2.03
2018-01-25T14:51:04.816Z,2.13
2018-01-25T14:53:32.392Z,2.10
2018-01-25T14:55:59.933Z,2.20
2018-01-25T14:58:27.463Z,3.10
2018-01-25T15:00:55.046Z,2.40
2018-01-25T15:03:22.583Z,3.43
2018-01-25T15:05:50.158Z,3.53
2018-01-25T15:08:17.695Z,2.97
2018-01-25T15:10:45.285Z,3.20
2018-01-25T15:13:12.817Z,2.50
2018-01-25T15:15:40.376Z,2.10
2018-01-25T15:18:07.949Z,2.57
2018-01-25T15:20:35.493Z,2.50
2018-01-25T15:23:03.060Z,2.60
2018-01-25T15:25:36.198Z,2.60
2018-01-25T15:28:03.764Z,2.30
2018-01-25T15:30:32.246Z,2.30
2018-01-25T15:32:59.821Z,2.87
2018-01-25T15:35:28.122Z,2.47
2018-01-25T15:37:55.707Z,1.97
2018-01-25T15:40:23.272Z,2.43
2018-01-25T15:42:50.808Z,3.17
2018-01-25T15:45:18.378Z,2.83
2018-01-25T15:47:45.919Z,2.97
2018-01-25T15:50:13.494Z,3.70
2018-01-25T15:52:41.059Z,4.77
2018-01-25T15:55:08.721Z,4.77
2018-01-25T15:57:36.288Z,4.67
2018-01-25T16:00:03.839Z,5.40
2018-01-25T16:02:31.407Z,6.00
2018-01-25T16:04:58.946Z,3.70
2018-01-25T16:07:26.518Z,3.40
2018-01-25T16:09:54.061Z,4.43
2018-01-25T16:12:21.647Z,3.47
2018-01-25T16:14:49.218Z,2.90
2018-01-25T16:17:16.747Z,3.07
2018-01-25T16:19:44.333Z,3.17
2018-01-25T16:22:11.873Z,2.70
2018-01-25T16:24:39.507Z,3.80
2018-01-25T16:27:07.017Z,3.53
2018-01-25T16:29:34.548Z,3.80
2018-01-25T16:32:02.097Z,3.47
2018-01-25T16:34:29.694Z,3.80
2018-01-25T16:36:57.232Z,3.90
2018-01-25T16:39:24.769Z,3.17
2018-01-25T16:41:52.352Z,3.10
2018-01-25T16:44:19.933Z,4.40
2018-01-25T16:46:47.472Z,4.30
2018-01-25T16:49:15.065Z,3.93
2018-01-25T16:51:42.616Z,3.80
2018-01-25T16:54:10.142Z,4.70
2018-01-25T16:56:37.749Z,6.37
2018-01-25T16:59:05.327Z,6.33
2018-01-25T17:01:39.384Z,8.80
2018-01-25T17:04:09.093Z,6.27
2018-01-25T17:06:36.664Z,11.03
2018-01-25T17:09:04.330Z,10.57
2018-01-25T17:11:31.967Z,10.80
2018-01-25T17:13:59.508Z,8.00
2018-01-25T17:16:27.818Z,7.13
2018-01-25T17:18:55.449Z,6.30
2018-01-25T17:21:23.804Z,6.73
2018-01-25T17:23:51.388Z,6.97
2018-01-25T17:26:19.693Z,7.67
2018-01-25T17:28:47.287Z,8.93
2018-01-25T17:31:14.906Z,8.10
2018-01-25T17:33:42.515Z,8.30
2018-01-25T17:36:10.093Z,10.03
2018-01-25T17:38:37.627Z,10.00
2018-01-25T17:41:05.205Z,11.20
2018-01-25T17:43:32.786Z,11.40
2018-01-25T17:46:01.135Z,10.93
2018-01-25T17:48:28.688Z,13.33
2018-01-25T17:50:56.327Z,12.20
2018-01-25T17:53:23.917Z,10.93
2018-01-25T17:55:51.491Z,9.50
2018-01-25T17:58:19.022Z,9.23
2018-01-25T18:00:46.678Z,10.10
2018-01-25T18:03:14.220Z,9.93
2018-01-25T18:05:41.754Z,9.67
2018-01-25T18:08:10.091Z,11.97
2018-01-25T18:10:39.231Z,10.43
2018-01-25T18:13:07.528Z,9.70
2018-01-25T18:15:35.105Z,8.67
2018-01-25T18:18:02.694Z,8.20
2018-01-25T18:20:30.272Z,7.93
2018-01-25T18:22:58.626Z,7.77
2018-01-25T18:25:26.263Z,8.30
2018-01-25T18:27:53.815Z,7.53
2018-01-25T18:30:21.429Z,9.60
2018-01-25T18:32:49.006Z,10.00
2018-01-25T18:35:17.361Z,7.90
2018-01-25T18:37:44.955Z,8.17
2018-01-25T18:40:12.537Z,8.73
2018-01-25T18:42:40.127Z,10.10
2018-01-25T18:45:07.786Z,12.37
2018-01-25T18:47:35.390Z,11.90
2018-01-25T18:50:03.701Z,11.60
2018-01-25T18:52:31.349Z,12.00
2018-01-25T18:54:58.947Z,11.87
2018-01-25T18:57:26.497Z,11.20
2018-01-25T18:59:54.081Z,12.10
2018-01-25T19:02:21.712Z,14.17
2018-01-25T19:04:49.337Z,14.03
2018-01-25T19:07:17.678Z,11.53
2018-01-25T19:09:45.297Z,11.90
2018-01-25T19:12:12.938Z,11.67
2018-01-25T19:14:40.476Z,12.30
2018-01-25T19:17:08.020Z,12.13
2018-01-25T19:19:35.656Z,11.53
2018-01-25T19:22:03.257Z,11.30
2018-01-25T19:24:30.891Z,14.80
2018-01-25T19:26:58.442Z,16.17
2018-01-25T19:29:25.985Z,16.93
2018-01-25T19:31:53.861Z,16.67
2018-01-25T19:34:21.452Z,15.20
2018-01-25T19:36:48.997Z,15.43
2018-01-25T19:39:16.637Z,12.20
2018-01-25T19:41:44.182Z,12.93
2018-01-25T19:44:11.823Z,16.13
2018-01-25T19:46:40.183Z,16.67
2018-01-25T19:49:07.840Z,16.43
2018-01-25T19:51:35.484Z,15.90
2018-01-25T19:54:03.076Z,17.70
2018-01-25T19:56:31.505Z,15.47
2018-01-25T19:58:59.113Z,16.40
2018-01-25T20:01:26.748Z,15.73
2018-01-25T20:03:54.339Z,16.70
2018-01-25T20:06:22.747Z,16.43
2018-01-25T20:08:50.339Z,17.27
2018-01-25T20:11:17.982Z,17.10
2018-01-25T20:13:45.523Z,16.43
2018-01-25T20:16:13.178Z,16.97
2018-01-25T20:18:41.541Z,13.63
2018-01-25T20:21:09.923Z,14.93
2018-01-25T20:23:38.231Z,16.10
2018-01-25T20:26:05.819Z,15.57
2018-01-25T20:28:33.400Z,13.43
2018-01-25T20:31:01.035Z,14.23
2018-01-25T20:33:28.572Z,16.17
2018-01-25T20:35:56.210Z,21.20
2018-01-25T20:38:24.514Z,19.10
2018-01-25T20:40:52.235Z,17.90
2018-01-25T20:43:20.548Z,16.80
2018-01-25T20:45:48.133Z,15.00
2018-01-25T20:48:15.672Z,17.83
2018-01-25T20:50:43.305Z,14.60
2018-01-25T20:53:11.659Z,15.03
2018-01-25T20:55:39.244Z,12.60
2018-01-25T20:58:07.608Z,12.60
2018-01-25T21:00:35.259Z,11.87
2018-01-25T21:03:02.862Z,11.10
2018-01-25T21:05:30.466Z,10.90
2018-01-25T21:07:58.096Z,11.10
2018-01-25T21:10:25.683Z,11.00
2018-01-25T21:12:53.267Z,10.90
2018-01-25T21:15:20.865Z,12.43
2018-01-25T21:17:48.485Z,10.77
2018-01-25T21:20:16.028Z,12.47
2018-01-25T21:22:43.618Z,13.70
2018-01-25T21:25:11.212Z,13.27
2018-01-25T21:27:38.880Z,13.93
2018-01-25T21:30:06.473Z,12.60
2018-01-25T21:32:34.062Z,14.30
2018-01-25T21:35:01.661Z,13.47
2018-01-25T21:37:29.294Z,14.63
2018-01-25T21:39:57.659Z,13.00
2018-01-25T21:42:25.243Z,15.17
2018-01-25T21:44:53.601Z,14.07
2018-01-25T21:47:21.244Z,13.40
2018-01-25T21:49:48.792Z,12.13
2018-01-25T21:52:16.427Z,11.93
2018-01-25T21:54:43.966Z,12.40
2018-01-25T21:57:12.342Z,11.83
2018-01-25T21:59:40.644Z,10.80
2018-01-25T22:02:08.284Z,12.43
2018-01-25T22:04:36.587Z,10.90
2018-01-25T22:07:04.293Z,11.10
2018-01-25T22:09:31.886Z,9.60
2018-01-25T22:12:00.299Z,11.00
2018-01-25T22:14:27.886Z,10.80
2018-01-25T22:16:55.426Z,14.00
2018-01-25T22:19:23.006Z,8.90
2018-01-25T22:21:50.588Z,7.10
2018-01-25T22:24:18.183Z,6.57
2018-01-25T22:26:45.821Z,6.60
2018-01-25T22:29:14.248Z,7.60
2018-01-25T22:31:41.830Z,8.00
2018-01-25T22:34:09.367Z,7.57
2018-01-25T22:36:36.947Z,7.10
2018-01-25T22:39:04.489Z,6.43
2018-01-25T22:41:32.068Z,7.13
2018-01-25T22:43:59.600Z,8.87
2018-01-25T22:46:27.175Z,10.17
2018-01-25T22:48:54.703Z,10.00
2018-01-25T22:51:22.326Z,10.70
2018-01-25T22:53:49.915Z,6.23
2018-01-25T22:56:17.488Z,5.90
2018-01-25T22:58:45.071Z,14.57
2018-01-25T23:01:12.641Z,20.63
2018-01-25T23:03:40.267Z,9.83
2018-01-25T23:06:07.800Z,6.57
2018-01-25T23:08:36.192Z,6.20
2018-01-25T23:11:04.575Z,5.80
2018-01-25T23:13:32.145Z,6.03
2018-01-25T23:15:59.723Z,5.60
2018-01-25T23:18:27.299Z,5.00
2018-01-25T23:20:54.918Z,5.40
2018-01-25T23:23:23.252Z,5.43
2018-01-25T23:25:50.873Z,4.03
2018-01-25T23:28:18.410Z,5.47
2018-01-25T23:30:46.707Z,4.97
2018-01-25T23:33:14.282Z,5.90
2018-01-25T23:35:41.866Z,10.20
2018-01-25T23:38:09.494Z,11.03
2018-01-25T23:40:37.028Z,9.53
2018-01-25T23:43:05.375Z,7.73
2018-01-25T23:45:32.915Z,9.10
2018-01-25T23:48:00.491Z,6.90
2018-01-25T23:50:28.026Z,8.17
2018-01-25T23:52:55.608Z,10.67
2018-01-25T23:55:23.138Z,8.27
2018-01-25T23:57:50.715Z,7.80
